createdAt,value
2022-08-16T00:01:49.889Z,33.87
2022-08-16T00:04:06.332Z,33.87
2022-08-16T00:06:33.955Z,33.85
2022-08-16T00:09:07.250Z,33.85
2022-08-16T00:11:37.685Z,33.86
2022-08-16T00:14:11.071Z,33.87
2022-08-16T00:17:00.848Z,33.85
2022-08-16T00:19:43.649Z,33.83
2022-08-16T00:22:03.025Z,33.81
2022-08-16T00:24:30.941Z,33.81
2022-08-16T00:26:51.892Z,33.83
2022-08-16T00:29:01.248Z,33.82
2022-08-16T00:31:24.210Z,33.82
2022-08-16T00:33:41.747Z,33.78
2022-08-16T00:36:04.038Z,33.76
2022-08-16T00:38:40.652Z,33.76
2022-08-16T00:41:08.501Z,33.72
2022-08-16T00:44:12.293Z,33.73
2022-08-16T00:47:11.015Z,33.76
2022-08-16T00:50:16.830Z,33.85
2022-08-16T00:53:09.726Z,33.99
2022-08-16T00:56:20.109Z,34.15
2022-08-16T00:59:09.220Z,34.26
2022-08-16T01:02:31.661Z,34.34
2022-08-16T01:05:49.393Z,34.53
2022-08-16T01:08:53.840Z,34.63
2022-08-16T01:11:51.728Z,34.65
2022-08-16T01:15:15.699Z,34.60
2022-08-16T01:18:38.974Z,34.51
2022-08-16T01:21:41.149Z,34.37
2022-08-16T01:24:55.284Z,34.22
2022-08-16T01:28:34.702Z,34.04
2022-08-16T01:31:31.057Z,33.86
2022-08-16T01:34:47.312Z,33.75
2022-08-16T01:37:53.913Z,33.65
2022-08-16T01:41:07.903Z,33.49
2022-08-16T01:44:02.228Z,33.35
2022-08-16T01:47:20.652Z,33.26
2022-08-16T01:50:44.278Z,33.11
2022-08-16T01:54:31.262Z,32.99
2022-08-16T01:57:31.449Z,32.88
2022-08-16T02:01:02.832Z,32.79
2022-08-16T02:04:11.718Z,32.67
2022-08-16T02:07:02.542Z,32.57
2022-08-16T02:10:22.405Z,32.47
2022-08-16T02:13:44.232Z,32.35
2022-08-16T02:16:46.175Z,32.24
2022-08-16T02:20:11.459Z,32.13
2022-08-16T02:23:21.494Z,32.04
2022-08-16T02:27:15.759Z,31.93
2022-08-16T02:30:44.971Z,31.82
2022-08-16T02:34:17.517Z,31.68
2022-08-16T02:37:15.041Z,31.54
2022-08-16T02:40:10.770Z,31.43
2022-08-16T02:43:01.250Z,31.24
2022-08-16T02:45:49.123Z,31.16
2022-08-16T02:49:05.817Z,31.03
2022-08-16T02:51:48.306Z,30.90
2022-08-16T02:54:59.499Z,30.82
2022-08-16T02:57:15.274Z,30.72
2022-08-16T03:00:34.061Z,30.64
2022-08-16T03:02:56.164Z,30.54
2022-08-16T03:06:03.548Z,30.46
2022-08-16T03:09:22.808Z,30.32
2022-08-16T03:12:19.634Z,30.19
2022-08-16T03:14:40.358Z,30.05
2022-08-16T03:17:53.775Z,29.94
2022-08-16T03:21:13.304Z,29.77
2022-08-16T03:24:01.536Z,29.63
2022-08-16T03:27:09.870Z,29.54
2022-08-16T03:30:17.478Z,29.42
2022-08-16T03:33:23.701Z,29.34
2022-08-16T03:36:29.912Z,29.24
2022-08-16T03:38:52.762Z,29.14
2022-08-16T03:41:51.363Z,29.03
2022-08-16T03:45:03.362Z,28.91
2022-08-16T03:47:29.837Z,28.79
2022-08-16T03:50:41.156Z,28.69
2022-08-16T03:53:37.622Z,28.57
2022-08-16T03:56:30.468Z,28.49
2022-08-16T03:59:31.269Z,28.38
2022-08-16T04:02:31.550Z,28.25
2022-08-16T04:04:56.082Z,28.15
2022-08-16T04:07:36.076Z,28.06
2022-08-16T04:10:37.366Z,27.96
2022-08-16T04:14:00.497Z,27.86
2022-08-16T04:15:57.742Z,27.76
2022-08-16T04:18:37.889Z,27.68
2022-08-16T04:21:09.252Z,27.60
2022-08-16T04:23:40.297Z,27.51
2022-08-16T04:26:46.316Z,27.43
2022-08-16T04:29:17.049Z,27.35
2022-08-16T04:32:17.904Z,27.25
2022-08-16T04:35:08.436Z,27.15
2022-08-16T04:38:10.905Z,27.05
2022-08-16T04:41:02.160Z,26.94
2022-08-16T04:43:09.556Z,26.86
2022-08-16T04:45:17.828Z,26.80
2022-08-16T04:47:31.637Z,26.75
2022-08-16T04:49:46.416Z,26.67
2022-08-16T04:51:56.653Z,26.61
2022-08-16T04:54:04.103Z,26.54
2022-08-16T04:57:01.685Z,26.47
2022-08-16T04:59:30.357Z,26.39
2022-08-16T05:01:58.175Z,26.32
2022-08-16T05:04:19.758Z,26.25
2022-08-16T05:06:42.255Z,26.18
2022-08-16T05:09:16.417Z,26.11
2022-08-16T05:11:26.479Z,26.05
2022-08-16T05:13:48.593Z,26.00
2022-08-16T05:16:12.011Z,25.93
2022-08-16T05:18:40.568Z,25.87
2022-08-16T05:21:23.875Z,25.81
2022-08-16T05:24:00.362Z,25.74
2022-08-16T05:26:28.117Z,25.67
2022-08-16T05:28:39.099Z,25.61
2022-08-16T05:30:50.525Z,25.54
2022-08-16T05:33:16.747Z,25.49
2022-08-16T05:35:26.908Z,25.41
2022-08-16T05:38:32.367Z,25.31
2022-08-16T05:40:36.166Z,25.22
2022-08-16T05:42:49.324Z,25.14
2022-08-16T05:45:02.060Z,25.08
2022-08-16T05:47:16.473Z,25.02
2022-08-16T05:49:50.664Z,24.94
2022-08-16T05:52:00.856Z,24.85
2022-08-16T05:54:11.201Z,24.78
2022-08-16T05:56:25.322Z,24.71
2022-08-16T05:58:35.651Z,24.67
2022-08-16T06:00:43.291Z,24.62
2022-08-16T06:03:00.199Z,24.56
2022-08-16T06:05:27.447Z,24.50
2022-08-16T06:07:34.941Z,24.45
2022-08-16T06:09:50.729Z,24.41
2022-08-16T06:12:27.500Z,24.37
2022-08-16T06:14:40.186Z,24.32
2022-08-16T06:16:50.642Z,24.23
2022-08-16T06:19:05.508Z,24.18
2022-08-16T06:21:22.812Z,24.13
2022-08-16T06:23:37.509Z,24.09
2022-08-16T06:25:58.630Z,24.05
2022-08-16T06:28:16.610Z,24.02
2022-08-16T06:30:36.270Z,23.96
2022-08-16T06:33:02.892Z,23.91
2022-08-16T06:35:14.335Z,23.86
2022-08-16T06:37:24.682Z,23.81
2022-08-16T06:39:59.662Z,23.78
2022-08-16T06:42:12.156Z,23.74
2022-08-16T06:44:57.382Z,23.70
2022-08-16T06:47:17.078Z,23.65
2022-08-16T06:49:52.751Z,23.60
2022-08-16T06:52:57.266Z,23.52
2022-08-16T06:54:46.402Z,23.48
2022-08-16T06:56:57.371Z,23.44
2022-08-16T06:59:16.562Z,23.39
2022-08-16T07:01:44.879Z,23.35
2022-08-16T07:04:02.058Z,23.27
2022-08-16T07:06:13.415Z,23.21
2022-08-16T07:08:24.711Z,23.15
2022-08-16T07:10:46.784Z,23.11
2022-08-16T07:13:04.170Z,23.07
2022-08-16T07:15:25.699Z,23.00
2022-08-16T07:18:01.790Z,22.94
2022-08-16T07:20:43.565Z,22.87
2022-08-16T07:23:13.263Z,22.83
2022-08-16T07:25:40.856Z,22.77
2022-08-16T07:27:49.223Z,22.73
2022-08-16T07:30:38.813Z,22.68
2022-08-16T07:32:56.436Z,22.62
2022-08-16T07:35:07.161Z,22.58
2022-08-16T07:37:29.887Z,22.54
2022-08-16T07:40:00.796Z,22.50
2022-08-16T07:42:09.306Z,22.48
2022-08-16T07:44:27.834Z,22.43
2022-08-16T07:46:58.398Z,22.37
2022-08-16T07:49:11.397Z,22.32
2022-08-16T07:51:23.397Z,22.25
2022-08-16T07:53:43.857Z,22.24
2022-08-16T07:55:54.927Z,22.18
2022-08-16T07:58:18.172Z,22.14
2022-08-16T08:00:46.102Z,22.08
2022-08-16T08:02:57.022Z,22.06
2022-08-16T08:05:08.837Z,22.02
2022-08-16T08:07:20.719Z,22.00
2022-08-16T08:09:29.961Z,21.96
2022-08-16T08:11:41.607Z,21.93
2022-08-16T08:14:29.882Z,21.88
2022-08-16T08:16:39.816Z,21.84
2022-08-16T08:19:03.316Z,21.81
2022-08-16T08:21:13.139Z,21.78
2022-08-16T08:23:22.354Z,21.75
2022-08-16T08:25:54.248Z,21.73
2022-08-16T08:28:06.040Z,21.68
2022-08-16T08:30:51.615Z,21.65
2022-08-16T08:33:00.267Z,21.63
2022-08-16T08:35:18.047Z,21.60
2022-08-16T08:37:55.469Z,21.58
2022-08-16T08:40:12.189Z,21.54
2022-08-16T08:42:26.646Z,21.50
2022-08-16T08:44:36.259Z,21.48
2022-08-16T08:47:00.619Z,21.44
2022-08-16T08:49:15.806Z,21.41
2022-08-16T08:51:27.594Z,21.38
2022-08-16T08:53:40.879Z,21.36
2022-08-16T08:55:58.712Z,21.32
2022-08-16T08:58:18.142Z,21.28
2022-08-16T09:00:51.143Z,21.24
2022-08-16T09:03:05.998Z,21.21
2022-08-16T09:05:37.494Z,21.16
2022-08-16T09:07:54.655Z,21.11
2022-08-16T09:10:20.707Z,21.05
2022-08-16T09:12:35.740Z,21.01
2022-08-16T09:15:03.369Z,20.97
2022-08-16T09:17:11.568Z,20.94
2022-08-16T09:19:33.043Z,20.89
2022-08-16T09:21:40.865Z,20.84
2022-08-16T09:23:50.005Z,20.80
2022-08-16T09:26:42.951Z,20.75
2022-08-16T09:29:13.949Z,20.70
2022-08-16T09:31:18.063Z,20.65
2022-08-16T09:33:37.236Z,20.61
2022-08-16T09:35:57.066Z,20.56
2022-08-16T09:38:08.594Z,20.52
2022-08-16T09:40:32.529Z,20.48
2022-08-16T09:42:55.924Z,20.44
2022-08-16T09:45:10.643Z,20.39
2022-08-16T09:47:29.876Z,20.34
2022-08-16T09:49:59.510Z,20.28
2022-08-16T09:52:07.084Z,20.24
2022-08-16T09:54:20.889Z,20.21
2022-08-16T09:56:32.095Z,20.18
2022-08-16T09:59:05.591Z,20.14
2022-08-16T10:01:14.791Z,20.12
2022-08-16T10:03:22.839Z,20.09
2022-08-16T10:05:41.110Z,20.06
2022-08-16T10:07:56.665Z,20.03
2022-08-16T10:10:11.562Z,20.01
2022-08-16T10:12:42.542Z,20.00
2022-08-16T10:14:50.544Z,19.97
2022-08-16T10:17:02.402Z,19.94
2022-08-16T10:19:31.892Z,19.89
2022-08-16T10:21:39.025Z,19.86
2022-08-16T10:23:49.733Z,19.87
2022-08-16T10:27:17.503Z,19.84
2022-08-16T10:28:50.368Z,19.79
2022-08-16T10:31:00.536Z,19.75
2022-08-16T10:33:11.990Z,19.71
2022-08-16T10:35:20.243Z,19.67
2022-08-16T10:37:36.159Z,19.64
2022-08-16T10:40:29.568Z,19.59
2022-08-16T10:42:37.431Z,19.55
2022-08-16T10:44:53.864Z,19.51
2022-08-16T10:47:16.447Z,19.47
2022-08-16T10:49:27.071Z,19.41
2022-08-16T10:52:01.245Z,19.40
2022-08-16T10:54:07.806Z,19.36
2022-08-16T10:56:55.300Z,19.32
2022-08-16T11:01:44.502Z,19.25
2022-08-16T11:07:42.967Z,19.19
2022-08-16T11:09:49.700Z,19.16
2022-08-16T11:12:13.669Z,19.12
2022-08-16T11:14:21.853Z,19.08
2022-08-16T11:19:04.251Z,19.03
2022-08-16T11:21:28.756Z,19.02
2022-08-16T11:23:59.645Z,18.98
2022-08-16T11:26:23.844Z,18.97
2022-08-16T11:31:02.653Z,18.93
2022-08-16T11:33:16.973Z,18.92
2022-08-16T11:36:22.211Z,18.90
2022-08-16T11:38:05.917Z,18.88
2022-08-16T11:40:34.042Z,18.86
2022-08-16T11:42:43.386Z,18.83
2022-08-16T11:44:56.883Z,18.80
2022-08-16T11:47:24.046Z,18.77
2022-08-16T11:49:45.489Z,18.75
2022-08-16T11:52:12.764Z,18.72
2022-08-16T11:54:28.729Z,18.69
2022-08-16T11:56:56.609Z,18.66
2022-08-16T11:59:04.561Z,18.64
2022-08-16T12:01:11.499Z,18.63
2022-08-16T12:03:34.755Z,18.62
2022-08-16T12:05:51.791Z,18.60
2022-08-16T12:08:05.471Z,18.58
2022-08-16T12:10:19.288Z,18.57
2022-08-16T12:12:28.433Z,18.56
2022-08-16T12:14:36.948Z,18.56
2022-08-16T12:16:48.702Z,18.55
2022-08-16T12:19:10.709Z,18.55
2022-08-16T12:21:20.923Z,18.54
2022-08-16T12:23:33.104Z,18.54
2022-08-16T12:25:40.771Z,18.55
2022-08-16T12:27:49.769Z,18.55
2022-08-16T12:29:58.263Z,18.54
2022-08-16T12:32:26.531Z,18.53
2022-08-16T12:34:37.190Z,18.52
2022-08-16T12:36:44.415Z,18.50
2022-08-16T12:38:56.287Z,18.50
2022-08-16T12:41:08.195Z,18.50
2022-08-16T12:43:19.528Z,18.47
2022-08-16T12:45:34.490Z,18.47
2022-08-16T12:48:31.590Z,18.46
2022-08-16T12:50:32.946Z,18.46
2022-08-16T12:52:52.506Z,18.45
2022-08-16T12:55:06.173Z,18.45
2022-08-16T12:57:18.775Z,18.45
2022-08-16T12:59:34.902Z,18.45
2022-08-16T13:01:50.286Z,18.45
2022-08-16T13:04:11.879Z,18.44
2022-08-16T13:06:29.850Z,18.43
2022-08-16T13:08:40.995Z,18.42
2022-08-16T13:10:56.672Z,18.40
2022-08-16T13:13:25.487Z,18.39
2022-08-16T13:15:55.508Z,18.38
2022-08-16T13:18:23.891Z,18.38
2022-08-16T13:20:35.206Z,18.37
2022-08-16T13:22:55.723Z,18.37
2022-08-16T13:25:21.335Z,18.36
2022-08-16T13:27:59.129Z,18.36
2022-08-16T13:29:58.956Z,18.35
2022-08-16T13:32:06.566Z,18.36
2022-08-16T13:34:18.469Z,18.36
2022-08-16T13:36:48.046Z,18.35
2022-08-16T13:38:56.535Z,18.35
2022-08-16T13:41:05.426Z,18.35
2022-08-16T13:43:22.679Z,18.35
2022-08-16T13:45:29.574Z,18.36
2022-08-16T13:47:43.759Z,18.37
2022-08-16T13:49:51.516Z,18.38
2022-08-16T13:52:00.023Z,18.39
2022-08-16T13:54:07.950Z,18.40
2022-08-16T13:56:22.290Z,18.42
2022-08-16T13:58:53.963Z,18.45
2022-08-16T14:01:04.268Z,18.46
2022-08-16T14:03:18.308Z,18.48
2022-08-16T14:05:28.801Z,18.50
2022-08-16T14:07:44.044Z,18.51
2022-08-16T14:10:18.610Z,18.54
2022-08-16T14:12:32.392Z,18.55
2022-08-16T14:15:09.164Z,18.56
2022-08-16T14:17:16.633Z,18.57
2022-08-16T14:19:29.206Z,18.60
2022-08-16T14:21:36.979Z,18.62
2022-08-16T14:23:50.344Z,18.64
2022-08-16T14:26:09.777Z,18.67
2022-08-16T14:28:20.268Z,18.69
2022-08-16T14:30:40.525Z,18.71
2022-08-16T14:32:51.074Z,18.72
2022-08-16T14:35:17.006Z,18.74
2022-08-16T14:37:27.281Z,18.78
2022-08-16T14:39:37.409Z,18.80
2022-08-16T14:41:53.809Z,18.81
2022-08-16T14:44:03.268Z,18.83
2022-08-16T14:46:09.936Z,18.84
2022-08-16T14:48:25.700Z,18.86
2022-08-16T14:50:33.954Z,18.88
2022-08-16T14:52:56.020Z,18.91
2022-08-16T14:55:16.179Z,18.94
2022-08-16T14:57:33.658Z,18.96
2022-08-16T14:59:50.609Z,18.99
2022-08-16T15:02:34.607Z,19.00
2022-08-16T15:04:47.991Z,19.03
2022-08-16T15:06:59.521Z,19.05
2022-08-16T15:09:06.676Z,19.06
2022-08-16T15:11:13.281Z,19.08
2022-08-16T15:13:20.244Z,19.10
2022-08-16T15:15:29.077Z,19.14
2022-08-16T15:17:38.907Z,19.17
2022-08-16T15:19:48.808Z,19.17
2022-08-16T15:21:59.825Z,19.19
2022-08-16T15:24:06.773Z,19.19
2022-08-16T15:26:42.819Z,19.20
2022-08-16T15:28:52.538Z,19.26
2022-08-16T15:31:02.929Z,19.28
2022-08-16T15:33:25.811Z,19.33
2022-08-16T15:35:38.616Z,19.37
2022-08-16T15:37:45.585Z,19.39
2022-08-16T15:39:53.862Z,19.41
2022-08-16T15:42:05.179Z,19.44
2022-08-16T15:44:26.209Z,19.49
2022-08-16T15:46:34.624Z,19.53
2022-08-16T15:49:01.058Z,19.59
2022-08-16T15:51:13.829Z,19.65
2022-08-16T15:54:16.159Z,19.70
2022-08-16T15:56:36.767Z,19.84
2022-08-16T15:59:04.423Z,20.00
2022-08-16T16:01:20.745Z,20.09
2022-08-16T16:03:34.895Z,20.27
2022-08-16T16:05:50.065Z,20.49
2022-08-16T16:08:11.227Z,20.65
2022-08-16T16:10:29.600Z,20.93
2022-08-16T16:12:53.593Z,21.24
2022-08-16T16:15:05.188Z,21.63
2022-08-16T16:17:17.762Z,22.09
2022-08-16T16:19:53.738Z,22.50
2022-08-16T16:22:17.210Z,23.08
2022-08-16T16:24:50.528Z,23.62
2022-08-16T16:27:11.219Z,24.18
2022-08-16T16:29:28.451Z,24.64
2022-08-16T16:32:12.105Z,25.06
2022-08-16T16:34:19.259Z,25.34
2022-08-16T16:36:29.332Z,25.57
2022-08-16T16:38:39.242Z,25.80
2022-08-16T16:40:54.010Z,26.01
2022-08-16T16:43:01.276Z,26.24
2022-08-16T16:45:25.753Z,26.35
2022-08-16T16:47:54.306Z,26.47
2022-08-16T16:50:17.573Z,26.46
2022-08-16T16:53:17.320Z,26.41
2022-08-16T16:55:29.851Z,26.14
2022-08-16T16:57:58.792Z,25.96
2022-08-16T17:00:30.046Z,25.95
2022-08-16T17:02:49.583Z,25.99
2022-08-16T17:05:08.770Z,26.07
2022-08-16T17:07:15.937Z,26.18
2022-08-16T17:09:22.782Z,26.21
2022-08-16T17:12:06.007Z,26.13
2022-08-16T17:14:32.086Z,26.10
2022-08-16T17:16:46.716Z,26.06
2022-08-16T17:19:47.675Z,26.00
2022-08-16T17:22:07.645Z,25.95
2022-08-16T17:25:27.024Z,25.80
2022-08-16T17:28:58.774Z,25.68
2022-08-16T17:31:50.931Z,25.74
2022-08-16T17:35:07.152Z,25.89
2022-08-16T17:37:59.334Z,26.05
2022-08-16T17:40:58.924Z,26.19
2022-08-16T17:43:21.294Z,26.36
2022-08-16T17:45:41.883Z,26.61
2022-08-16T17:47:54.746Z,26.80
2022-08-16T17:50:18.749Z,26.97
2022-08-16T17:53:01.919Z,26.96
2022-08-16T17:56:12.291Z,26.78
2022-08-16T17:59:30.092Z,26.89
2022-08-16T18:01:37.051Z,27.04
2022-08-16T18:04:15.348Z,27.15
2022-08-16T18:07:06.452Z,27.38
2022-08-16T18:10:32.524Z,27.52
2022-08-16T18:13:11.605Z,27.66
2022-08-16T18:15:47.184Z,27.86
2022-08-16T18:18:27.251Z,28.09
2022-08-16T18:21:41.660Z,28.25
2022-08-16T18:24:58.881Z,28.37
2022-08-16T18:27:39.955Z,28.49
2022-08-16T18:30:31.519Z,28.66
2022-08-16T18:33:43.586Z,28.76
2022-08-16T18:36:34.251Z,28.83
2022-08-16T18:39:41.203Z,28.85
2022-08-16T18:42:55.695Z,28.99
2022-08-16T18:45:44.518Z,29.24
2022-08-16T18:48:28.606Z,29.35
2022-08-16T18:51:24.967Z,29.35
2022-08-16T18:54:25.668Z,29.38
2022-08-16T18:57:10.707Z,29.47
2022-08-16T19:00:12.614Z,29.51
2022-08-16T19:02:59.448Z,29.58
2022-08-16T19:05:59.531Z,29.75
2022-08-16T19:09:02.963Z,29.92
2022-08-16T19:11:24.511Z,29.93
2022-08-16T19:14:34.091Z,30.00
2022-08-16T19:17:34.217Z,30.17
2022-08-16T19:20:28.194Z,30.16
2022-08-16T19:23:09.793Z,30.15
2022-08-16T19:26:29.545Z,30.25
2022-08-16T19:28:59.649Z,30.37
2022-08-16T19:31:40.557Z,30.43
2022-08-16T19:34:12.287Z,30.54
2022-08-16T19:36:55.273Z,30.65
2022-08-16T19:39:21.391Z,30.66
2022-08-16T19:42:10.964Z,30.75
2022-08-16T19:45:27.594Z,30.91
2022-08-16T19:47:44.616Z,31.08
2022-08-16T19:51:03.274Z,31.18
2022-08-16T19:53:37.914Z,31.25
2022-08-16T19:56:09.500Z,31.33
2022-08-16T19:58:36.418Z,31.34
2022-08-16T20:00:56.547Z,31.39
2022-08-16T20:04:14.778Z,31.52
2022-08-16T20:07:31.544Z,31.66
2022-08-16T20:10:47.635Z,31.70
2022-08-16T20:13:04.217Z,31.75
2022-08-16T20:15:37.617Z,31.69
2022-08-16T20:17:54.894Z,31.75
2022-08-16T20:20:05.214Z,31.79
2022-08-16T20:23:24.066Z,31.90
2022-08-16T20:26:32.327Z,32.01
2022-08-16T20:29:42.274Z,32.10
2022-08-16T20:32:49.505Z,32.17
2022-08-16T20:35:30.561Z,32.20
2022-08-16T20:38:08.122Z,32.09
2022-08-16T20:40:51.381Z,32.12
2022-08-16T20:43:24.472Z,32.08
2022-08-16T20:46:16.728Z,32.06
2022-08-16T20:49:24.101Z,32.13
2022-08-16T20:52:32.633Z,32.20
2022-08-16T20:55:47.912Z,32.22
2022-08-16T20:58:30.946Z,32.17
2022-08-16T21:01:07.138Z,32.18
2022-08-16T21:03:48.118Z,32.25
2022-08-16T21:06:54.976Z,32.28
2022-08-16T21:09:46.061Z,32.26
2022-08-16T21:12:51.678Z,32.23
2022-08-16T21:15:25.993Z,32.18
2022-08-16T21:18:10.105Z,32.16
2022-08-16T21:21:03.123Z,32.19
2022-08-16T21:23:42.694Z,32.24
2022-08-16T21:26:58.754Z,32.30
2022-08-16T21:29:46.836Z,32.43
2022-08-16T21:32:35.131Z,32.52
2022-08-16T21:35:18.587Z,32.59
2022-08-16T21:37:38.344Z,32.63
2022-08-16T21:40:48.019Z,32.63
2022-08-16T21:43:21.523Z,32.70
2022-08-16T21:45:42.023Z,32.70
2022-08-16T21:48:33.554Z,32.79
2022-08-16T21:51:27.702Z,32.86
2022-08-16T21:54:20.584Z,32.94
2022-08-16T21:56:59.406Z,33.06
2022-08-16T21:59:28.037Z,33.12
2022-08-16T22:01:45.635Z,33.15
2022-08-16T22:04:37.515Z,33.16
2022-08-16T22:06:53.654Z,33.14
2022-08-16T22:09:37.856Z,33.13
2022-08-16T22:12:41.229Z,33.17
2022-08-16T22:15:02.114Z,33.19
2022-08-16T22:17:31.168Z,33.18
2022-08-16T22:19:41.272Z,33.17
2022-08-16T22:22:39.013Z,33.19
2022-08-16T22:25:42.055Z,33.18
2022-08-16T22:28:00.721Z,33.24
2022-08-16T22:30:33.319Z,33.33
2022-08-16T22:33:25.505Z,33.46
2022-08-16T22:36:28.602Z,33.55
2022-08-16T22:39:50.614Z,33.61
2022-08-16T22:42:37.886Z,33.66
2022-08-16T22:45:37.105Z,33.73
2022-08-16T22:48:25.520Z,33.81
2022-08-16T22:51:22.440Z,33.90
2022-08-16T22:54:45.967Z,34.02
2022-08-16T22:57:18.726Z,34.13
2022-08-16T23:00:20.706Z,34.20
2022-08-16T23:03:06.078Z,34.28
2022-08-16T23:05:33.033Z,34.32
2022-08-16T23:08:02.972Z,34.34
2022-08-16T23:10:32.949Z,34.35
2022-08-16T23:13:05.471Z,34.35
2022-08-16T23:16:00.295Z,34.34
2022-08-16T23:18:49.613Z,34.35
2022-08-16T23:21:42.469Z,34.38
2022-08-16T23:24:21.366Z,34.36
2022-08-16T23:26:49.877Z,34.38
2022-08-16T23:29:30.194Z,34.41
2022-08-16T23:31:48.374Z,34.43
2022-08-16T23:34:54.949Z,34.46
2022-08-16T23:38:03.722Z,34.48
2022-08-16T23:41:30.169Z,34.49
2022-08-16T23:43:57.431Z,34.50
2022-08-16T23:46:17.878Z,34.50
2022-08-16T23:48:30.950Z,34.52
2022-08-16T23:51:37.257Z,34.51
2022-08-16T23:54:56.401Z,34.49
2022-08-16T23:57:53.337Z,34.43
